Soaring Guidance
Issued by NWS Reno, NV

Home | Current Version | Previous Version | Text Only | Print | Product List | Glossary On
Versions: 1 2 3 4 5 6 7 8 9 10 11 12 13 14
000
UXUS97 KREV 231349
SRGREV

SOARING FORECAST
NATIONAL WEATHER SERVICE - RENO NV
700 AM PDT WED AUG 23 2017

THIS SOARING FORECAST IS FOR THE EASTERN SIERRA AND WESTERN NEVADA
WITH SPECIFIC INDICES FOR THE GREATER RENO AREA.

THIS FORECAST IS PREPARED DAILY BY 700 AM AND IS NOT UPDATED.

FOR CURRENT FLIGHT CONDITIONS...FORECASTS...AND ADVISORIES...ACCESS
YOUR LOCAL BRIEFING OUTLET OR FLIGHT SERVICE STATION.

*******************************************************************
FORECASTED LOCAL INDICES FOR RENO:        TODAY     YESTERDAY
FORECASTED MAX TEMP AT RENO (DEG F).....     90          91
FORECASTED TRIGGER TEMPERATURE (DEG F)..     76          80
   EXCEEDED YESTERDAY BY 1055 AM PDT
FORECASTED MAXIMUM ALTITUDE (FT MSL)....  16400       16000
FORECASTED SOARING INDEX (FPM)..........   1032        1080
FORECASTED K-INDEX.........VALID 18Z....     31          31
FORECASTED K-INDEX.........VALID 00Z....     26          35
FORECASTED LIFTED INDEX....VALID 18Z....      0           0
FORECASTED LIFTED INDEX....VALID 00Z....     -1          -2

AFTERNOON WINDS ALOFT FORECAST
MSL (FT) WIND/TEMP
9000  9900/+16
10000 9900/+13
12000 9900/+07
14000 9902/+01
16000 9905/-04
18000 2314/-10
24000 2712/-21
30000 3016/-37
34000 3129/-45
39000 3143/-52

SLIDE MOUNTAIN DATA:
     DATE       TIME     TEMP  DEWPT   RH         WIND (MPH)
                        (F)   (F)           | DIR  SPEED GUST
2017-08-23    05:30      52    38     48    | 324    0    0
2017-08-23    05:20      52    38     48    | 323    0    0
2017-08-23    05:00      52    38     48    | 310    0    0
2017-08-23    04:50      51    38     49    | 281    3    6

RENO TAF FORECAST:
KRNO 231120Z 2312/2412 VRB03KT P6SM FEW160
     FM232100 22006KT P6SM VCTS SCT090CB BKN150
     FM240100 33010KT P6SM VCSH SCT070 BKN140
     FM240600 VRB03KT P6SM FEW150

CARSON CITY TAF FORECAST:
KCXP 231120Z 2312/2412 VRB03KT P6SM SCT045
     FM232100 23006KT P6SM VCTS SCT080CB BKN150
     FM240100 26009KT P6SM VCSH SCT070 BKN120
     FM240500 VRB03KT P6SM FEW140

OUTLOOK FOR THE RENO-CARSON CITY-MINDEN AREA:
.THURSDAY...SUNNY. HIGHS 87 TO 92. LIGHT WINDS BECOMING SOUTHEAST
AROUND 10 MPH IN THE AFTERNOON.

SUNRISE AND SUNSET
AUGUST 23 2017........SUNRISE   619 AM PDT   SUNSET   743 PM PDT
AUGUST 24 2017........SUNRISE   620 AM PDT   SUNSET   742 PM PDT


USA.gov is the U.S. government's official web portal to all federal, state and local government web resources and services.